blumentals.net alexa rank chart, blumentals.net alexa rank daily changes

blumentals.net alexa rank chart, blumentals.net alexa rank daily changes

blumentals.net
Actual rank:
228 502

RANK HISTORY

Date Rank Diff
2017/04/23 228 502 -4 945
2017/04/22 233 447 -5 820
2017/04/21 239 267 +1 499
2017/04/20 237 768 +6 810
2017/04/19 230 958 -850
2017/04/18 231 808 +2 768
2017/04/17 229 040 +1 404
2017/04/16 227 636 -1 958
2017/04/15 229 594 +2 460
2017/04/14 227 134 +2 478
2017/04/13 224 656 -521
2017/04/12 225 177 -461
2017/04/11 225 638 -705
2017/04/10 226 343 +5 403
2017/04/09 220 940 -6 237
2017/04/08 227 177 +109
2017/04/07 227 068 +1 673
2017/04/06 225 395 +1 305
2017/04/05 224 090 +4 677
2017/04/04 219 413 -3 462
2017/04/03 222 875 -12 047
2017/04/02 234 922 -6 296
2017/04/01 241 218 +4 832
2017/03/31 236 386 -819
2017/03/30 237 205 +3 173
2017/03/29 234 032 -6 104
2017/03/28 240 136 +12 017
2017/03/27 228 119 +285
2017/03/26 227 834 -249
2017/03/25 228 083 +1 978
2017/03/24 226 105 +1 546
2017/03/23 224 559 +4 511
2017/03/22 220 048 +735
2017/03/21 219 313 +105
2017/03/20 219 208 -5 463
2017/03/19 224 671 +6 153
2017/03/18 218 518 +769
2017/03/17 217 749 +1 383
2017/03/16 216 366 +979
2017/03/15 215 387 -3 376
2017/03/14 218 763 +1 755
2017/03/13 217 008 +6 512
2017/03/12 210 496 +1 986
2017/03/11 208 510 +4 568
2017/03/10 203 942 -4 251
2017/03/09 208 193 +8 858
2017/03/08 199 335 +10 750
2017/03/07 188 585 +1 165
2017/03/06 187 420 -3 864
2017/03/01 191 284 +931
2017/02/28 190 353 -7 403
2017/02/27 197 756 +4 400
2017/02/26 193 356 -2 023
2017/02/25 195 379 +337
2017/02/24 195 042 +840
2017/02/23 194 202 -1 155
2017/02/22 195 357

WIDGET FOR YOUR SITE

DOMAINS WITH THE NEAREST RANK

Domain Rank
interrapidisimo.com 228 497
needls.com 228 498
desinudevideos.tumblr.com 228 499
drozthegoodlife.com 228 500
putlocker.is 228 501
blumentals.net 228 502
189rmb.com 228 503
morainepark.edu 228 504
iphoneac.com 228 505
theartofsimple.net 228 506
consumeraffairs.nic.in 228 507

DOMAINS WITH THE NEAREST RANK BY TLD .net

Domain Rank
sonokinetic.net 228 391
capacamera.net 228 400
nontonbokepgratis.net 228 449
medsecret.net 228 471
urdusms.net 228 483
blumentals.net 228 502
theartofsimple.net 228 506
bitraise.net 228 516
browsegames.net 228 569
horsedicks.net 228 602
wallpapersqq.net 228 607